Map

Track Data

SID SEASON NUMBER BASIN SUBBASIN NAME ISO_TIME NATURE LAT LON WMO_WIND WMO_PRES WMO_AGENCY TRACK_TYPE DIST2LAND LANDFALL IFLAG USA_AGENCY USA_ATCF_ID USA_LAT USA_LON USA_RECORD USA_STATUS USA_WIND USA_PRES USA_SSHS USA_R34_NE USA_R34_SE USA_R34_SW USA_R34_NW USA_R50_NE USA_R50_SE USA_R50_SW USA_R50_NW USA_R64_NE USA_R64_SE USA_R64_SW USA_R64_NW USA_POCI USA_ROCI USA_RMW USA_EYE TOKYO_LAT TOKYO_LON TOKYO_GRADE TOKYO_WIND TOKYO_PRES TOKYO_R50_DIR TOKYO_R50_LONG TOKYO_R50_SHORT TOKYO_R30_DIR TOKYO_R30_LONG TOKYO_R30_SHORT TOKYO_LAND CMA_LAT CMA_LON CMA_CAT CMA_WIND CMA_PRES HKO_LAT HKO_LON HKO_CAT HKO_WIND HKO_PRES NEWDELHI_LAT NEWDELHI_LON NEWDELHI_GRADE NEWDELHI_WIND NEWDELHI_PRES NEWDELHI_CI NEWDELHI_DP NEWDELHI_POCI REUNION_LAT REUNION_LON REUNION_TYPE REUNION_WIND REUNION_PRES REUNION_TNUM REUNION_CI REUNION_RMW REUNION_R34_NE REUNION_R34_SE REUNION_R34_SW REUNION_R34_NW REUNION_R50_NE REUNION_R50_SE REUNION_R50_SW REUNION_R50_NW REUNION_R64_NE REUNION_R64_SE REUNION_R64_SW REUNION_R64_NW BOM_LAT BOM_LON BOM_TYPE BOM_WIND BOM_PRES BOM_TNUM BOM_CI BOM_RMW BOM_R34_NE BOM_R34_SE BOM_R34_SW BOM_R34_NW BOM_R50_NE BOM_R50_SE BOM_R50_SW BOM_R50_NW BOM_R64_NE BOM_R64_SE BOM_R64_SW BOM_R64_NW BOM_ROCI BOM_POCI BOM_EYE BOM_POS_METHOD BOM_PRES_METHOD NADI_LAT NADI_LON NADI_CAT NADI_WIND NADI_PRES WELLINGTON_LAT WELLINGTON_LON WELLINGTON_WIND WELLINGTON_PRES DS824_LAT DS824_LON DS824_STAGE DS824_WIND DS824_PRES TD9636_LAT TD9636_LON TD9636_STAGE TD9636_WIND TD9636_PRES TD9635_LAT TD9635_LON TD9635_WIND TD9635_PRES TD9635_ROCI NEUMANN_LAT NEUMANN_LON NEUMANN_CLASS NEUMANN_WIND NEUMANN_PRES MLC_LAT MLC_LON MLC_CLASS MLC_WIND MLC_PRES USA_GUST BOM_GUST BOM_GUST_PER REUNION_GUST REUNION_GUST_PER USA_SEAHGT USA_SEARAD_NE USA_SEARAD_SE USA_SEARAD_SW USA_SEARAD_NW STORM_SPEED STORM_DIR
1956229N18108 1956 75 WP MM NOT_NAMED 1956-08-16 00:00:00 TS 18.4000 107.500 main 119 106 __O___________ -1 18.4000 107.500 0 1002 4 75
1956229N18108 1956 75 WP MM NOT_NAMED 1956-08-16 03:00:00 TS 18.4500 107.700 main 105 84 __P___________ -1 18.4500 107.700 0 1001 4 75
1956229N18108 1956 75 WP MM NOT_NAMED 1956-08-16 06:00:00 TS 18.5000 107.900 main 84 63 __O___________ -1 18.5000 107.900 0 19 1001 4 75
1956229N18108 1956 75 WP MM NOT_NAMED 1956-08-16 09:00:00 TS 18.5500 108.100 main 63 42 __P___________ -1 18.5500 108.100 0 24 998 4 75
1956229N18108 1956 75 WP MM NOT_NAMED 1956-08-16 12:00:00 TS 18.6000 108.300 main 42 21 __O___________ -1 18.6000 108.300 1 29 996 4 75
1956229N18108 1956 75 WP MM NOT_NAMED 1956-08-16 15:00:00 TS 18.6500 108.500 main 21 0 __P___________ -1 18.6500 108.500 1 26 996 4 75
1956229N18108 1956 75 WP MM NOT_NAMED 1956-08-16 18:00:00 TS 18.7000 108.700 main 0 0 __O___________ -1 18.7000 108.700 1 23 996 4 78
1956229N18108 1956 75 WP MM NOT_NAMED 1956-08-16 21:00:00 TS 18.7350 108.908 main 0 0 __P___________ -1 18.7350 108.908 1 23 997 4 75
1956229N18108 1956 75 WP MM NOT_NAMED 1956-08-17 00:00:00 TS 18.8000 109.100 main 0 0 __O___________ -1 18.8000 109.100 1 23 998 4 61
1956229N18108 1956 75 WP MM NOT_NAMED 1956-08-17 03:00:00 TS 18.9350 109.287 main 0 0 __P___________ -1 18.9350 109.287 1 23 998 4 43
1956229N18108 1956 75 WP MM NOT_NAMED 1956-08-17 06:00:00 TS 19.1000 109.400 main 0 0 __O___________ -1 19.1000 109.400 1 23 998 3 18
1956229N18108 1956 75 WP MM NOT_NAMED 1956-08-17 09:00:00 TS 19.2500 109.395 main 0 0 __P___________ -1 19.2500 109.395 1 21 998 3 343
1956229N18108 1956 75 WP MM NOT_NAMED 1956-08-17 12:00:00 TS 19.4000 109.300 main 0 0 __O___________ -1 19.4000 109.300 0 19 998 4 325
1956229N18108 1956 75 WP MM NOT_NAMED 1956-08-17 15:00:00 TS 19.5350 109.180 main 0 0 __P___________ -1 19.5350 109.180 0 19 998 4 317
1956229N18108 1956 75 WP MM NOT_NAMED 1956-08-17 18:00:00 TS 19.7000 109.000 main 15 15 __O___________ -1 19.7000 109.000 0 19 998 6 311
1956229N18108 1956 75 WP MM NOT_NAMED 1956-08-17 21:00:00 TS 19.9051 108.728 main 49 49 __P___________ -1 19.9051 108.728 0 19 998 7 317
1956229N18108 1956 75 WP MM NOT_NAMED 1956-08-18 00:00:00 TS 20.2000 108.500 main 88 88 __O___________ -1 20.2000 108.500 0 19 999 8 340
1956229N18108 1956 75 WP MM NOT_NAMED 1956-08-18 03:00:00 TS 20.6199 108.447 main 102 54 __P___________ -1 20.6199 108.447 0 19 999 9 0
1956229N18108 1956 75 WP MM NOT_NAMED 1956-08-18 06:00:00 TS 21.1000 108.500 main 54 15 __O___________ -1 21.1000 108.500 0 19 999 9 7
1956229N18108 1956 75 WP MM NOT_NAMED 1956-08-18 09:00:00 TS 21.5425 108.578 main 15 0 __P___________ -1 21.5425 108.578 0 19 999 9 12
1956229N18108 1956 75 WP MM NOT_NAMED 1956-08-18 12:00:00 TS 22.0000 108.700 main 0 0 __O___________ -1 22.0000 108.700 0 19 999 10 15
1956229N18108 1956 75 WP MM NOT_NAMED 1956-08-18 15:00:00 TS 22.4900 108.845 main 0 0 __P___________ -1 22.4900 108.845 0 18 1000 10 16
1956229N18108 1956 75 WP MM NOT_NAMED 1956-08-18 18:00:00 TS 23.0000 109.000 main 0 __O___________ -1 23.0000 109.000 0 17 1001 11 16

Digital Typhoon Data and Search

About IBTrACS Database

This database is a web-friendly format of International Best Track Archive for Climate Stewardship (IBTrACS), a global best track data archive curated by NOAA dating back to 1842.

Updated: 2021-12-06